Flight Track Log - Related Links

Times and Time Zones

All times are in EDT time to prevent confusion due to time zone crossing. See the UAL1024 flight status page for this flight to view local times or setup timezone preferences in your user account.

Time Position Orientation Groundspeed Altitude Reporting Facility
EDT Latitude Longitude Course Direction KTS MPH feet Rate Location/Type
Mon 01:19:00 AM 38.8647 -115.9299 79° East  Level FlightAware Approximate
Mon 01:20:00 AM 38.8868 -115.7709 80° East  Level FlightAware Approximate
Mon 01:21:00 AM 38.9088 -115.6117 80° East  Level FlightAware Approximate
Mon 01:22:00 AM 38.9305 -115.4524 80° East  Level FlightAware Approximate
Mon 01:23:00 AM 38.9521 -115.2930 80° East  Level FlightAware Approximate
Mon 01:24:00 AM 38.9734 -115.1336 80° East  Level FlightAware Approximate
Mon 01:25:00 AM 38.9945 -114.9740 80° East  Level FlightAware Approximate
Mon 01:26:00 AM 39.0153 -114.8143 80° East  Level FlightAware Approximate
Mon 01:27:00 AM 39.0360 -114.6546 80° East  Level FlightAware Approximate
Mon 01:28:00 AM 39.0564 -114.4947 81° East  Level FlightAware Approximate
Mon 01:29:00 AM 39.0767 -114.3348 81° East  Level FlightAware Approximate
Mon 01:30:00 AM 39.0967 -114.1748 81° East  Level FlightAware Approximate
Mon 01:31:00 AM 39.1164 -114.0146 81° East  Level FlightAware Approximate
Mon 01:32:00 AM 39.1360 -113.8544 81° East  Level FlightAware Approximate
Mon 01:33:00 AM 39.1554 -113.6941 81° East  Level FlightAware Approximate
Mon 01:34:00 AM 39.1745 -113.5337 81° East  Level FlightAware Approximate
Mon 01:35:00 AM 39.1934 -113.3733 81° East  Level FlightAware Approximate
Mon 01:36:00 AM 39.2130 -113.2129 81° East  Level FlightAware Approximate
Mon 01:37:00 AM 39.2330 -113.0525 81° East  Level FlightAware Approximate
Mon 01:38:00 AM 39.2527 -112.8921 81° East  Level FlightAware Approximate
Mon 01:39:00 AM 39.2723 -112.7316 81° East  Level FlightAware Approximate
Mon 01:40:00 AM 39.2915 -112.5710 81° East  Level FlightAware Approximate
Mon 01:41:00 AM 39.3166 -112.4118 76° East  Level FlightAware Approximate
Mon 01:42:00 AM 39.3462 -112.2537 76° East  Level FlightAware Approximate
Mon 01:43:00 AM 39.3756 -112.0954 76° East  Level FlightAware Approximate
Mon 01:44:00 AM 39.4048 -111.9371 77° East  Level FlightAware Approximate
Mon 01:45:00 AM 39.4337 -111.7786 77° East  Level FlightAware Approximate
Mon 01:46:00 AM 39.4632 -111.6162 77° East  Level FlightAware Approximate
Mon 01:47:00 AM 39.4924 -111.4536 77° East  Level FlightAware Approximate
Mon 01:48:00 AM 39.5213 -111.2909 77° East  Level FlightAware Approximate
Mon 01:49:00 AM 39.5501 -111.1281 77° East  Level FlightAware Approximate
Mon 01:50:00 AM 39.5786 -110.9651 77° East  Level FlightAware Approximate
Mon 01:51:00 AM 39.6069 -110.8020 77° East  Level FlightAware Approximate
Mon 01:52:00 AM 39.6349 -110.6387 77° East  Level FlightAware Approximate
Mon 01:53:00 AM 39.6628 -110.4754 77° East  Level FlightAware Approximate
Mon 01:54:00 AM 39.6904 -110.3119 78° East  Level FlightAware Approximate
Mon 01:55:00 AM 39.7178 -110.1482 78° East  Level FlightAware Approximate
Mon 01:56:00 AM 39.7449 -109.9845 78° East  Level FlightAware Approximate
Mon 01:57:00 AM 39.7718 -109.8206 78° East  Level FlightAware Approximate
Mon 01:58:00 AM 39.7985 -109.6566 78° East  Level FlightAware Approximate
Mon 01:59:00 AM 39.8250 -109.4925 78° East  Level FlightAware Approximate
Mon 02:00:00 AM 39.8513 -109.3282 78° East  Level FlightAware Approximate
Mon 02:01:00 AM 39.8773 -109.1638 78° East  Level FlightAware Approximate
Mon 02:02:00 AM 39.9031 -108.9993 78° East  Level FlightAware Approximate
Mon 02:03:00 AM 39.9287 -108.8347 79° East  Level FlightAware Approximate
Mon 02:04:00 AM 39.9540 -108.6699 79° East  Level FlightAware Approximate
Mon 02:05:00 AM 39.9791 -108.5051 79° East  Level FlightAware Approximate
Mon 02:06:00 AM 40.0040 -108.3401 79° East  Level FlightAware Approximate
Mon 02:07:00 AM 40.0286 -108.1749 79° East  Level FlightAware Approximate
Mon 02:08:00 AM 40.0530 -108.0097 79° East  Level FlightAware Approximate
Mon 02:09:00 AM 40.0826 -107.8460 74° East  Level FlightAware Approximate
Mon 02:10:00 AM 40.1187 -107.6844 74° East  Level FlightAware Approximate
Mon 02:11:00 AM 40.1547 -107.5226 74° East  Level FlightAware Approximate
Mon 02:12:00 AM 40.1904 -107.3606 74° East  Level FlightAware Approximate
Mon 02:13:00 AM 40.2268 -107.1988 73° East  Level FlightAware Approximate
Mon 02:14:00 AM 40.2634 -107.0369 73° East  Level FlightAware Approximate
Mon 02:15:00 AM 40.2998 -106.8749 74° East  Level FlightAware Approximate
Mon 02:16:00 AM 40.3359 -106.7128 74° East  Level FlightAware Approximate
Mon 02:17:00 AM 40.3719 -106.5504 74° East  Level FlightAware Approximate
Mon 02:18:00 AM 40.4076 -106.3879 74° East  Level FlightAware Approximate
Mon 02:19:00 AM 40.4430 -106.2252 74° East  Level FlightAware Approximate
Mon 02:20:00 AM 40.4782 -106.0623 74° East  Level FlightAware Approximate
Mon 02:21:00 AM 40.5133 -105.8993 74° East  Level FlightAware Approximate
Mon 02:22:00 AM 40.5466 -105.7355 75° East  Level FlightAware Approximate
Mon 02:23:00 AM 40.5796 -105.5716 75° East  Level FlightAware Approximate
Mon 02:24:00 AM 40.6123 -105.4075 75° East  Level FlightAware Approximate
Mon 02:25:00 AM 40.6448 -105.2432 75° East  Level FlightAware Approximate
Mon 02:26:00 AM 40.6792 -105.0796 74° East  Level FlightAware Approximate
Mon 02:27:00 AM 40.7138 -104.9159 74° East  Level FlightAware Approximate
Mon 02:28:00 AM 40.7482 -104.7521 74° East  Level FlightAware Approximate
Mon 02:29:00 AM 40.7824 -104.5881 75° East  Level FlightAware Approximate
Mon 02:30:00 AM 40.8137 -104.4230 76° East  Level FlightAware Approximate
Mon 02:31:00 AM 40.8447 -104.2577 76° East  Level FlightAware Approximate
Mon 02:32:00 AM 40.8754 -104.0923 76° East  Level FlightAware Approximate
Mon 02:33:00 AM 40.9059 -103.9267 76° East  Level FlightAware Approximate
Mon 02:34:00 AM 40.9362 -103.7610 76° East  Level FlightAware Approximate
Mon 02:35:00 AM 40.9662 -103.5951 76° East  Level FlightAware Approximate
Mon 02:36:00 AM 40.9967 -103.4293 76° East  Level FlightAware Approximate
Mon 02:37:00 AM 41.0280 -103.2637 76° East  Level FlightAware Approximate
Mon 02:38:00 AM 41.0592 -103.0967 76° East  Level FlightAware Approximate
Mon 02:39:00 AM 41.0866 -102.9288 83° East  Level FlightAware Approximate
Mon 02:40:00 AM 41.1012 -102.7578 83° East  Level FlightAware Approximate
Mon 02:41:00 AM 41.1156 -102.5867 84° East  Level FlightAware Approximate
Mon 02:42:00 AM 41.1297 -102.4155 84° East  Level FlightAware Approximate
Mon 02:43:00 AM 41.1436 -102.2442 84° East  Level FlightAware Approximate
Mon 02:44:00 AM 41.1572 -102.0729 84° East  Level FlightAware Approximate
Mon 02:45:00 AM 41.1706 -101.9015 84° East  Level FlightAware Approximate
Mon 02:46:00 AM 41.1837 -101.7301 84° East  Level FlightAware Approximate
Mon 02:47:00 AM 41.1966 -101.5585 84° East  Level FlightAware Approximate
Mon 02:48:00 AM 41.2092 -101.3869 84° East  Level FlightAware Approximate
Mon 02:49:00 AM 41.2168 -101.2150 85° East  Level FlightAware Approximate
Mon 02:50:00 AM 41.2274 -101.0431 85° East  Level FlightAware Approximate
Mon 02:51:00 AM 41.2378 -100.8711 85° East  Level FlightAware Approximate
Mon 02:52:00 AM 41.2479 -100.6992 85° East  Level FlightAware Approximate
Mon 02:53:00 AM 41.2578 -100.5271 86° East  Level FlightAware Approximate
Mon 02:54:00 AM 41.2674 -100.3550 86° East  Level FlightAware Approximate
Mon 02:55:00 AM 41.2768 -100.1829 86° East  Level FlightAware Approximate
Mon 02:56:00 AM 41.2859 -100.0107 86° East  Level FlightAware Approximate
Mon 02:57:00 AM 41.2947 -99.8384 86° East  Level FlightAware Approximate
Mon 02:58:00 AM 41.3033 -99.6661 86° East  Level FlightAware Approximate
Mon 02:59:00 AM 41.3116 -99.4938 86° East  Level FlightAware Approximate
Mon 03:00:00 AM 41.3197 -99.3214 86° East  Level FlightAware Approximate
Mon 03:01:00 AM 41.3275 -99.1490 86° East  Level FlightAware Approximate
Mon 03:02:00 AM 41.3354 -98.9766 86° East  Level FlightAware Approximate
Mon 03:03:00 AM 41.3444 -98.8042 86° East  Level FlightAware Approximate
Mon 03:04:00 AM 41.3531 -98.6318 86° East  Level FlightAware Approximate
Mon 03:05:00 AM 41.3615 -98.4594 86° East  Level FlightAware Approximate
Mon 03:06:00 AM 41.3686 -98.2868 88° East  Level FlightAware Approximate
Mon 03:07:00 AM 41.3738 -98.1141 88° East  Level FlightAware Approximate
Mon 03:08:00 AM 41.3788 -97.9413 88° East  Level FlightAware Approximate
Mon 03:09:00 AM 41.3834 -97.7685 88° East  Level FlightAware Approximate
Mon 03:10:00 AM 41.3879 -97.5957 88° East  Level FlightAware Approximate
Mon 03:11:00 AM 41.3920 -97.4229 88° East  Level FlightAware Approximate
Mon 03:12:00 AM 41.3959 -97.2501 88° East  Level FlightAware Approximate
Mon 03:13:00 AM 41.3996 -97.0772 88° East  Level FlightAware Approximate
Mon 03:14:00 AM 41.4030 -96.9043 88° East  Level FlightAware Approximate
Mon 03:15:00 AM 41.4061 -96.7314 89° East  Level FlightAware Approximate
Mon 03:16:00 AM 41.4090 -96.5585 89° East  Level FlightAware Approximate
Mon 03:17:00 AM 41.4116 -96.3856 89° East  Level FlightAware Approximate
Mon 03:18:00 AM 41.4139 -96.2127 89° East  Level FlightAware Approximate
Mon 03:19:00 AM 41.4160 -96.0397 89° East  Level FlightAware Approximate
Mon 03:20:00 AM 41.4186 -95.8668 89° East  Level FlightAware Approximate
Mon 03:21:00 AM 41.4213 -95.6938 89° East  Level FlightAware Approximate
Mon 03:22:00 AM 41.4237 -95.5209 89° East  Level FlightAware Approximate
Mon 03:23:00 AM 41.4259 -95.3479 89° East  Level FlightAware Approximate
Mon 03:24:00 AM 41.4278 -95.1749 89° East  Level FlightAware Approximate
Mon 03:25:00 AM 41.4295 -95.0019 89° East  Level FlightAware Approximate
Mon 03:26:00 AM 41.4308 -94.8289 89° East  Level FlightAware Approximate
Mon 03:27:00 AM 41.4320 -94.6559 89° East  Level FlightAware Approximate
Mon 03:28:00 AM 41.4328 -94.4829 90° East  Level FlightAware Approximate
Mon 03:29:00 AM 41.4334 -94.3098 90° East  Level FlightAware Approximate
Mon 03:30:00 AM 41.4338 -94.1368 90° East  Level FlightAware Approximate
Mon 03:31:00 AM 41.4339 -93.9638 90° East  Level FlightAware Approximate
Mon 03:32:00 AM 41.4337 -93.7908 90° East  Level FlightAware Approximate
Mon 03:33:00 AM 41.4353 -93.6180 80° East  Level FlightAware Approximate
Mon 03:34:00 AM 41.4549 -93.4469 83° East  Level FlightAware Approximate
Mon 03:35:00 AM 41.4705 -93.2751 83° East  Level FlightAware Approximate
Mon 03:36:00 AM 41.4858 -93.1031 83° East  Level FlightAware Approximate
Mon 03:37:00 AM 41.5009 -92.9311 83° East  Level FlightAware Approximate
Mon 03:38:00 AM 41.5157 -92.7590 83° East  Level FlightAware Approximate
Mon 03:39:00 AM 41.5303 -92.5869 83° East  Level FlightAware Approximate
Mon 03:40:00 AM 41.5446 -92.4146 84° East  Level FlightAware Approximate
Mon 03:41:00 AM 41.5587 -92.2423 84° East  Level FlightAware Approximate
Mon 03:42:00 AM 41.5725 -92.0699 84° East  Level FlightAware Approximate
Mon 03:43:00 AM 41.5860 -91.8975 84° East  Level FlightAware Approximate
Mon 03:44:00 AM 41.5993 -91.7249 84° East  Level FlightAware Approximate
Mon 03:45:00 AM 41.6124 -91.5523 84° East  Level FlightAware Approximate
Mon 03:46:00 AM 41.6251 -91.3796 84° East  Level FlightAware Approximate
Mon 03:47:00 AM 41.6380 -91.2070 84° East  Level FlightAware Approximate
Mon 03:48:00 AM 41.6515 -91.0343 84° East  Level FlightAware Approximate
Mon 03:49:00 AM 41.6647 -90.8616 84° East  Level FlightAware Approximate
Mon 03:50:00 AM 41.6776 -90.6888 84° East  Level FlightAware Approximate
Mon 03:51:00 AM 41.6902 -90.5159 84° East  Level FlightAware Approximate
Mon 03:52:00 AM 41.7026 -90.3430 84° East  Level FlightAware Approximate
Mon 03:53:00 AM 41.7148 -90.1700 85° East  Level FlightAware Approximate
Mon 03:54:00 AM 41.7267 -89.9969 85° East  Level FlightAware Approximate
Mon 03:55:00 AM 41.7383 -89.8238 85° East  Level FlightAware Approximate
Mon 03:56:00 AM 41.7497 -89.6506 85° East  Level FlightAware Approximate
Mon 03:57:00 AM 41.7608 -89.4773 85° East  Level FlightAware Approximate
Mon 03:58:00 AM 41.7716 -89.3040 85° East  Level FlightAware Approximate
Mon 03:59:00 AM 41.7822 -89.1307 85° East  Level FlightAware Approximate
Mon 04:00:00 AM 41.7925 -88.9572 85° East  Level FlightAware Approximate
Mon 04:01:00 AM 41.8026 -88.7838 85° East  Level FlightAware Approximate
Mon 04:02:00 AM 41.8124 -88.6102 86° East  Level FlightAware Approximate
Mon 04:03:00 AM 41.8215 -88.4366 86° East  Level FlightAware Approximate
Mon 04:04:00 AM 41.8299 -88.2629 86° East  Level FlightAware Approximate
Mon 04:05:00 AM 41.8381 -88.0891 86° East  Level FlightAware Approximate
Mon 04:06:00 AM 41.8460 -87.9153 86° East  Level FlightAware Approximate
Mon 04:07:00 AM 41.8533 -87.7506 87° East  Level FlightAware Approximate
Mon 04:08:00 AM 41.8603 -87.5858 87° East  Level FlightAware Approximate
Mon 04:09:00 AM 41.8671 -87.4210 87° East  Level FlightAware Approximate
Mon 04:10:00 AM 41.8736 -87.2561 87° East  Level FlightAware Approximate
Mon 04:11:00 AM 41.8799 -87.0912 87° East  Level FlightAware Approximate
Mon 04:12:00 AM 41.8866 -86.9264 87° East  Level FlightAware Approximate
Mon 04:13:00 AM 41.8939 -86.7615 87° East  Level FlightAware Approximate
Mon 04:14:00 AM 41.9008 -86.5966 87° East  Level FlightAware Approximate
Mon 04:15:00 AM 41.9076 -86.4317 87° East  Level FlightAware Approximate
Mon 04:16:00 AM 41.9141 -86.2667 87° East  Level FlightAware Approximate
Mon 04:17:00 AM 41.9204 -86.1017 87° East  Level FlightAware Approximate
Mon 04:18:00 AM 41.9264 -85.9367 87° East  Level FlightAware Approximate
Mon 04:19:00 AM 41.9322 -85.7716 87° East  Level FlightAware Approximate
Mon 04:20:00 AM 41.9378 -85.6065 87° East  Level FlightAware Approximate
Mon 04:21:00 AM 41.9431 -85.4414 87° East  Level FlightAware Approximate
Mon 04:22:00 AM 41.9482 -85.2762 88° East  Level FlightAware Approximate
Mon 04:23:00 AM 41.9501 -85.1110 90° East  Level FlightAware Approximate
Mon 04:24:00 AM 41.9500 -84.9457 90° East  Level FlightAware Approximate
Mon 04:25:00 AM 41.9492 -84.7804 90° East  Level FlightAware Approximate
Mon 04:26:00 AM 41.9480 -84.6151 91° East  Level FlightAware Approximate
Mon 04:27:00 AM 41.9465 -84.4498 91° East  Level FlightAware Approximate
Mon 04:28:00 AM 41.9449 -84.2846 91° East  Level FlightAware Approximate
Mon 04:29:00 AM 41.9429 -84.1193 91° East  Level FlightAware Approximate
Mon 04:30:00 AM 41.9408 -83.9541 91° East  Level FlightAware Approximate
Mon 04:31:00 AM 41.9383 -83.7861 91° East  Level FlightAware Approximate
Mon 04:32:00 AM 41.9357 -83.6181 91° East  Level FlightAware Approximate
Mon 04:33:00 AM 41.9325 -83.4501 92° East  Level FlightAware Approximate
Mon 04:34:00 AM 41.9281 -83.2823 92° East  Level FlightAware Approximate
Mon 04:35:00 AM 41.9235 -83.1144 92° East  Level FlightAware Approximate
Mon 04:36:00 AM 41.9186 -82.9465 92° East  Level FlightAware Approximate
Mon 04:37:00 AM 41.9171 -82.7786 90° East  Level FlightAware Approximate
Mon 04:38:00 AM 41.9176 -82.6107 90° East  Level FlightAware Approximate
Mon 04:39:00 AM 41.9179 -82.4427 90° East  Level FlightAware Approximate
Mon 04:40:00 AM 41.9179 -82.2748 90° East  Level FlightAware Approximate
Mon 04:41:00 AM 41.9176 -82.1068 90° East  Level FlightAware Approximate
Mon 04:42:00 AM 41.9172 -81.9389 90° East  Level FlightAware Approximate
Mon 04:43:00 AM 41.9114 -81.7714 99° East  Level FlightAware Approximate
Mon 04:44:00 AM 41.8922 -81.6055 99° East  Level FlightAware Approximate
Mon 04:45:00 AM 41.8727 -81.4397 99° East  Level FlightAware Approximate
Mon 04:46:00 AM 41.8529 -81.2740 99° East  Level FlightAware Approximate
Mon 04:47:00 AM 41.8416 -81.1071 96° East  Level FlightAware Approximate
Mon 04:48:00 AM 41.8286 -80.9403 96° East  Level FlightAware Approximate
Mon 04:49:00 AM 41.8154 -80.7735 96° East  Level FlightAware Approximate
Mon 04:50:00 AM 41.8019 -80.6068 96° East  Level FlightAware Approximate
Mon 04:51:00 AM 41.7853 -80.4407 98° East  Level FlightAware Approximate
Mon 04:52:00 AM 41.7678 -80.2725 98° East  Level FlightAware Approximate
Mon 04:53:00 AM 41.7500 -80.1044 98° East  Level FlightAware Approximate
Mon 04:54:00 AM 41.7320 -79.9363 98° East  Level FlightAware Approximate
Mon 04:55:00 AM 41.7137 -79.7684 98° East  Level FlightAware Approximate
Mon 04:56:00 AM 41.6952 -79.6006 98° East  Level FlightAware Approximate
Mon 04:57:00 AM 41.6765 -79.4328 98° East  Level FlightAware Approximate
Mon 04:58:00 AM 41.6575 -79.2652 99° East  Level FlightAware Approximate
Mon 04:59:00 AM 41.6387 -79.0976 98° East  Level FlightAware Approximate
Mon 05:00:00 AM 41.6199 -78.9300 98° East  Level FlightAware Approximate
Mon 05:01:00 AM 41.6009 -78.7625 99° East  Level FlightAware Approximate
Mon 05:02:00 AM 41.5817 -78.5951 99° East  Level FlightAware Approximate
Mon 05:03:00 AM 41.5622 -78.4278 99° East  Level FlightAware Approximate
Mon 05:04:00 AM 41.5425 -78.2606 99° East  Level FlightAware Approximate
Mon 05:05:00 AM 41.5197 -78.0942 102° East  Level FlightAware Approximate
Mon 05:06:00 AM 41.4955 -77.9282 99° East  Level FlightAware Approximate
Mon 05:07:00 AM 41.4759 -77.7612 99° East  Level FlightAware Approximate
Mon 05:08:00 AM 41.4542 -77.5947 101° East  Level FlightAware Approximate
Mon 05:09:00 AM 41.4305 -77.4287 101° East  Level FlightAware Approximate
Mon 05:10:00 AM 41.4067 -77.2628 101° East  Level FlightAware Approximate
Mon 05:11:00 AM 41.3827 -77.0958 101° East  Level FlightAware Approximate
Mon 05:12:00 AM 41.3578 -76.9292 101° East  Level FlightAware Approximate
Mon 05:13:00 AM 41.3324 -76.7628 108° East  Level FlightAware Approximate
Mon 05:14:00 AM 41.2882 -76.6039 118° Southeast  Level FlightAware Approximate
Mon 05:15:00 AM 41.2389 -76.4479 110° East  Level FlightAware Approximate
Mon 05:16:00 AM 41.2006 -76.2863 105° East  Level FlightAware Approximate
Mon 05:17:00 AM 41.1560 -76.1292 111° Southeast  Level FlightAware Approximate
Mon 05:18:00 AM 41.1140 -75.9704 112° Southeast  Level FlightAware Approximate
Mon 05:19:00 AM 41.0659 -75.8137 108° East  Level FlightAware Approximate
Mon 05:20:00 AM 41.0249 -75.6536 111° Southeast  Level FlightAware Approximate
Mon 05:21:00 AM 40.9820 -75.4946 108° East  Level FlightAware Approximate
Mon 05:22:00 AM 40.9390 -75.3392 118° Southeast  Level FlightAware Approximate
Mon 05:23:00 AM 40.8993 -75.1816 118° Southeast  Level FlightAware Approximate
Mon 05:24:00 AM 40.8486 -75.0275 108° East  Level FlightAware Approximate
Mon 05:25:00 AM 40.8167 -74.8669 90° East  Level FlightAware Approximate
Mon 05:26:00 AM 40.7844 -74.7041 108° East  Level FlightAware Approximate
Mon 05:27:00 AM 40.7513 -74.5425 101° East  Level FlightAware Approximate
Mon 05:28:00 AM 40.7215 -74.3812 114° Southeast  Level FlightAware Approximate
Mon 05:29:00 AM 40.6919 -74.2178 102° East  Level FlightAware Approximate
Mon 05:30:00 AM 40.6833 -74.1667 102° East  Level FlightAware Approximate
Mon 05:31:00 AM 40.6925 -74.1687 102° East  Level Estimated
Mon 05:32:00 AM 40.6925 -74.1687 102° East  Level Estimated
Mon 05:33:00 AM 40.6925 -74.1687 102° East  Level Estimated
Mon 05:34:00 AM 40.6925 -74.1687 102° East  Level Estimated
Mon 05:35:00 AM 40.6925 -74.1687 102° East  Level Estimated
Mon 05:36:00 AM 40.6925 -74.1687 102° East  Level Estimated
Mon 05:37:00 AM 40.6925 -74.1687 102° East  Level Estimated
Mon 05:38:00 AM 40.6925 -74.1687 102° East  Level Estimated
Mon 05:39:00 AM 40.6925 -74.1687 102° East  Level Estimated

Login

Don't have an account? Register now (free) for customized features, flight alerts, and more!